createdAt,value
2017-11-08T00:02:00.186Z,97867.37
2017-11-08T00:04:27.698Z,97859.27
2017-11-08T00:06:56.151Z,97863.60
2017-11-08T00:09:23.666Z,97864.27
2017-11-08T00:11:51.167Z,97852.20
2017-11-08T00:14:18.682Z,97826.20
2017-11-08T00:16:46.180Z,97815.59
2017-11-08T00:19:13.693Z,97817.06
2017-11-08T00:21:47.165Z,97793.52
2017-11-08T00:24:24.523Z,97777.13
2017-11-08T00:26:52.045Z,97788.45
2017-11-08T00:29:19.549Z,97802.12
2017-11-08T00:31:47.037Z,97810.48
2017-11-08T00:34:14.533Z,97797.55
2017-11-08T00:36:42.059Z,97799.13
2017-11-08T00:39:09.570Z,97821.41
2017-11-08T00:41:37.070Z,97830.10
2017-11-08T00:44:04.586Z,97826.11
2017-11-08T00:46:32.095Z,97821.69
2017-11-08T00:48:59.611Z,97831.91
2017-11-08T00:51:27.113Z,97845.89
2017-11-08T00:53:54.614Z,97848.27
2017-11-08T00:56:22.178Z,97839.11
2017-11-08T00:58:49.676Z,97837.23
2017-11-08T01:01:17.181Z,97835.74
2017-11-08T01:03:46.626Z,97835.14
2017-11-08T01:06:14.152Z,97832.75
2017-11-08T01:08:41.655Z,97835.77
2017-11-08T01:11:09.146Z,97837.97
2017-11-08T01:13:36.636Z,97830.16
2017-11-08T01:16:04.160Z,97832.42
2017-11-08T01:18:31.697Z,97839.76
2017-11-08T01:20:59.194Z,97827.13
2017-11-08T01:23:26.693Z,97827.39
2017-11-08T01:25:54.206Z,97827.66
2017-11-08T01:28:21.701Z,97833.31
2017-11-08T01:30:49.230Z,97823.88
2017-11-08T01:33:16.721Z,97826.72
2017-11-08T01:35:44.230Z,97820.34
2017-11-08T01:38:12.650Z,97827.05
2017-11-08T01:40:44.074Z,97824.60
2017-11-08T01:43:11.569Z,97826.48
2017-11-08T01:45:42.070Z,97833.86
2017-11-08T01:48:09.566Z,97826.80
2017-11-08T01:50:38.951Z,97827.73
2017-11-08T01:53:06.503Z,97824.53
2017-11-08T01:55:34.027Z,97823.52
2017-11-08T01:58:01.537Z,97820.18
2017-11-08T02:00:29.070Z,97817.55
2017-11-08T02:02:56.572Z,97818.75
2017-11-08T02:05:24.066Z,97824.88
2017-11-08T02:07:51.588Z,97822.94
2017-11-08T02:10:19.123Z,97820.17
2017-11-08T02:12:46.622Z,97825.28
2017-11-08T02:15:14.201Z,97822.27
2017-11-08T02:17:47.288Z,97822.19
2017-11-08T02:20:14.790Z,97813.09
2017-11-08T02:22:42.295Z,97818.77
2017-11-08T02:25:12.783Z,97814.41
2017-11-08T02:27:40.314Z,97817.78
2017-11-08T02:30:07.815Z,97819.13
2017-11-08T02:32:35.315Z,97810.95
2017-11-08T02:35:02.836Z,97819.17
2017-11-08T02:37:30.334Z,97813.12
2017-11-08T02:39:57.847Z,97818.04
2017-11-08T02:42:25.391Z,97816.21
2017-11-08T02:44:52.907Z,97822.69
2017-11-08T02:47:20.427Z,97820.53
2017-11-08T02:49:47.930Z,97820.13
2017-11-08T02:52:15.444Z,97821.99
2017-11-08T02:54:42.950Z,97825.53
2017-11-08T02:57:10.470Z,97828.78
2017-11-08T02:59:40.892Z,97832.48
2017-11-08T03:05:16.456Z,97829.60
2017-11-08T03:07:43.970Z,97830.67
2017-11-08T03:10:11.495Z,97826.20
2017-11-08T03:12:39.003Z,97828.86
2017-11-08T03:15:06.504Z,97825.69
2017-11-08T03:17:34.089Z,97826.44
2017-11-08T03:20:01.586Z,97831.42
2017-11-08T03:22:29.097Z,97826.42
2017-11-08T03:24:56.592Z,97833.17
2017-11-08T03:27:24.163Z,97829.27
2017-11-08T03:29:51.676Z,97826.97
2017-11-08T03:32:19.162Z,97836.59
2017-11-08T03:34:46.709Z,97834.31
2017-11-08T03:37:14.211Z,97840.80
2017-11-08T03:39:41.810Z,97833.68
2017-11-08T03:42:09.422Z,97836.09
2017-11-08T03:44:36.922Z,97837.11
2017-11-08T03:47:04.441Z,97831.52
2017-11-08T03:49:31.944Z,97830.20
2017-11-08T03:51:59.443Z,97825.91
2017-11-08T03:54:26.933Z,97825.59
2017-11-08T03:56:54.426Z,97824.41
2017-11-08T03:59:21.930Z,97830.14
2017-11-08T04:01:49.440Z,97832.33
2017-11-08T04:04:16.939Z,97826.33
2017-11-08T04:06:44.462Z,97826.05
2017-11-08T04:09:11.948Z,97821.91
2017-11-08T04:11:39.458Z,97828.46
2017-11-08T04:14:06.962Z,97832.47
2017-11-08T04:16:34.471Z,97827.59
2017-11-08T04:19:02.002Z,97828.30
2017-11-08T04:21:29.525Z,97827.83
2017-11-08T04:23:57.031Z,97827.59
2017-11-08T04:26:24.543Z,97827.31
2017-11-08T04:28:52.052Z,97820.13
2017-11-08T04:31:19.586Z,97827.93
2017-11-08T04:33:47.115Z,97818.64
2017-11-08T04:36:14.628Z,97829.91
2017-11-08T04:38:42.140Z,97821.37
2017-11-08T04:41:09.633Z,97822.15
2017-11-08T04:43:37.146Z,97827.63
2017-11-08T04:46:04.638Z,97826.06
2017-11-08T04:48:32.135Z,97835.73
2017-11-08T04:50:59.667Z,97827.94
2017-11-08T04:53:27.181Z,97832.53
2017-11-08T04:55:54.729Z,97832.38
2017-11-08T04:58:22.246Z,97840.13
2017-11-08T05:00:49.761Z,97840.70
2017-11-08T05:03:17.266Z,97839.61
2017-11-08T05:05:44.779Z,97845.60
2017-11-08T05:08:12.297Z,97849.30
2017-11-08T05:10:39.812Z,97850.44
2017-11-08T05:13:07.316Z,97850.10
2017-11-08T05:15:34.826Z,97852.00
2017-11-08T05:18:02.362Z,97855.44
2017-11-08T05:20:29.865Z,97851.98
2017-11-08T05:22:57.402Z,97857.19
2017-11-08T05:25:24.917Z,97852.63
2017-11-08T05:27:52.427Z,97863.67
2017-11-08T05:30:19.970Z,97869.31
2017-11-08T05:32:47.476Z,97877.31
2017-11-08T05:35:14.978Z,97878.23
2017-11-08T05:37:42.494Z,97877.01
2017-11-08T05:40:10.016Z,97875.45
2017-11-08T05:42:37.536Z,97875.84
2017-11-08T05:45:05.081Z,97872.86
2017-11-08T05:47:32.631Z,97881.05
2017-11-08T05:50:00.131Z,97883.84
2017-11-08T05:52:27.641Z,97885.67
2017-11-08T05:54:55.142Z,97884.23
2017-11-08T05:57:22.650Z,97885.24
2017-11-08T05:59:50.176Z,97884.56
2017-11-08T06:02:17.725Z,97892.70
2017-11-08T06:04:45.323Z,97892.61
2017-11-08T06:07:12.821Z,97897.53
2017-11-08T06:09:40.339Z,97898.48
2017-11-08T06:12:07.832Z,97904.72
2017-11-08T06:14:35.350Z,97907.83
2017-11-08T06:17:02.867Z,97910.76
2017-11-08T06:19:30.366Z,97909.23
2017-11-08T06:21:57.865Z,97906.31
2017-11-08T06:24:25.361Z,97908.20
2017-11-08T06:26:52.879Z,97912.25
2017-11-08T06:29:20.377Z,97911.92
2017-11-08T06:31:47.878Z,97918.00
2017-11-08T06:34:15.373Z,97920.32
2017-11-08T06:36:42.874Z,97917.38
2017-11-08T06:39:10.362Z,97920.61
2017-11-08T06:41:37.869Z,97918.16
2017-11-08T06:44:05.381Z,97928.14
2017-11-08T06:46:32.875Z,97930.55
2017-11-08T06:49:00.396Z,97940.78
2017-11-08T06:51:27.892Z,97949.13
2017-11-08T06:53:55.536Z,97944.98
2017-11-08T06:56:23.069Z,97940.97
2017-11-08T06:58:50.981Z,97947.39
2017-11-08T07:01:18.547Z,97957.18
2017-11-08T07:03:46.062Z,97954.91
2017-11-08T07:06:13.558Z,97953.84
2017-11-08T07:08:44.001Z,97959.88
2017-11-08T07:11:11.503Z,97961.97
2017-11-08T07:13:38.998Z,97961.09
2017-11-08T07:16:07.275Z,97963.72
2017-11-08T07:18:34.767Z,97966.56
2017-11-08T07:21:02.274Z,97967.63
2017-11-08T07:23:29.774Z,97973.01
2017-11-08T07:25:57.310Z,97976.34
2017-11-08T07:28:24.806Z,97968.32
2017-11-08T07:30:52.722Z,97978.26
2017-11-08T07:33:20.239Z,97981.77
2017-11-08T07:35:47.738Z,97977.36
2017-11-08T07:38:15.242Z,97976.34
2017-11-08T07:40:42.751Z,97976.45
2017-11-08T07:43:10.254Z,97982.39
2017-11-08T07:45:37.749Z,97980.23
2017-11-08T07:48:05.245Z,97982.64
2017-11-08T07:50:32.754Z,97982.63
2017-11-08T07:53:00.271Z,97986.84
2017-11-08T07:55:33.532Z,97993.19
2017-11-08T07:58:01.018Z,97997.20
2017-11-08T08:00:28.528Z,97991.75
2017-11-08T08:02:56.054Z,97997.63
2017-11-08T08:05:23.556Z,97996.83
2017-11-08T08:07:51.063Z,97995.03
2017-11-08T08:10:18.566Z,97997.83
2017-11-08T08:12:46.052Z,98000.77
2017-11-08T08:15:13.550Z,98001.34
2017-11-08T08:17:41.035Z,97999.91
2017-11-08T08:20:08.539Z,98004.86
2017-11-08T08:22:36.050Z,98003.55
2017-11-08T08:25:03.562Z,98006.83
2017-11-08T08:27:31.146Z,98005.59
2017-11-08T08:29:58.654Z,98016.70
2017-11-08T08:32:26.148Z,98009.97
2017-11-08T08:34:53.642Z,98017.09
2017-11-08T08:37:21.171Z,98023.30
2017-11-08T08:39:48.676Z,98027.45
2017-11-08T08:42:16.185Z,98030.12
2017-11-08T08:44:43.698Z,98028.64
2017-11-08T08:47:11.199Z,98031.73
2017-11-08T08:49:38.693Z,98033.36
2017-11-08T08:52:06.203Z,98029.48
2017-11-08T08:54:33.691Z,98033.67
2017-11-08T08:57:01.195Z,98035.36
2017-11-08T08:59:28.692Z,98033.73
2017-11-08T09:01:56.189Z,98033.22
2017-11-08T09:04:23.690Z,98033.41
2017-11-08T09:06:51.181Z,98032.45
2017-11-08T09:09:18.702Z,98037.85
2017-11-08T09:11:46.223Z,98039.97
2017-11-08T09:14:13.793Z,98046.95
2017-11-08T09:16:41.285Z,98042.03
2017-11-08T09:19:08.790Z,98044.38
2017-11-08T09:21:37.080Z,98051.30
2017-11-08T09:24:06.520Z,98053.80
2017-11-08T09:26:34.013Z,98055.77
2017-11-08T09:29:04.479Z,98058.44
2017-11-08T09:31:37.022Z,98061.32
2017-11-08T09:34:04.534Z,98072.19
2017-11-08T09:36:34.939Z,98065.31
2017-11-08T09:39:02.452Z,98074.66
2017-11-08T09:41:31.762Z,98072.93
2017-11-08T09:43:59.268Z,98071.09
2017-11-08T09:46:26.862Z,98074.96
2017-11-08T09:48:54.369Z,98071.09
2017-11-08T09:51:21.872Z,98076.83
2017-11-08T09:53:49.400Z,98074.55
2017-11-08T09:56:18.641Z,98073.45
2017-11-08T09:58:46.153Z,98074.67
2017-11-08T10:01:15.626Z,98072.20
2017-11-08T10:03:43.132Z,98071.92
2017-11-08T10:06:10.630Z,98072.11
2017-11-08T10:08:41.077Z,98059.80
2017-11-08T10:11:23.239Z,98069.59
2017-11-08T10:13:50.785Z,98071.94
2017-11-08T10:16:19.133Z,98071.79
2017-11-08T10:18:46.661Z,98077.17
2017-11-08T10:21:14.152Z,98076.77
2017-11-08T10:23:41.629Z,98076.24
2017-11-08T10:26:09.159Z,98075.61
2017-11-08T10:28:36.650Z,98083.85
2017-11-08T10:31:04.149Z,98075.66
2017-11-08T10:33:31.654Z,98076.17
2017-11-08T10:35:59.152Z,98079.27
2017-11-08T10:38:26.650Z,98074.94
2017-11-08T10:40:54.163Z,98078.53
2017-11-08T10:43:21.651Z,98087.15
2017-11-08T10:45:49.192Z,98081.36
2017-11-08T10:48:16.705Z,98077.92
2017-11-08T10:50:44.230Z,98081.41
2017-11-08T10:53:11.744Z,98080.73
2017-11-08T10:55:39.255Z,98075.41
2017-11-08T10:58:06.763Z,98084.96
2017-11-08T11:00:37.209Z,98091.36
2017-11-08T11:03:06.597Z,98092.50
2017-11-08T11:05:34.271Z,98089.68
2017-11-08T11:08:01.821Z,98100.14
2017-11-08T11:10:29.446Z,98099.00
2017-11-08T11:13:04.478Z,98094.44
2017-11-08T11:15:31.993Z,98090.61
2017-11-08T11:17:59.507Z,98097.06
2017-11-08T11:20:27.927Z,98094.80
2017-11-08T11:22:55.456Z,98094.03
2017-11-08T11:25:22.969Z,98096.24
2017-11-08T11:27:50.488Z,98087.37
2017-11-08T11:30:23.686Z,98097.81
2017-11-08T11:32:51.210Z,98093.03
2017-11-08T11:35:18.759Z,98090.45
2017-11-08T11:37:48.077Z,98093.96
2017-11-08T11:40:15.583Z,98093.75
2017-11-08T11:42:43.115Z,98095.31
2017-11-08T11:45:10.625Z,98090.59
2017-11-08T11:47:38.158Z,98093.42
2017-11-08T11:50:05.663Z,98098.48
2017-11-08T11:52:33.178Z,98103.87
2017-11-08T11:55:00.671Z,98103.64
2017-11-08T11:57:28.187Z,98106.13
2017-11-08T11:59:55.696Z,98107.53
2017-11-08T12:02:23.359Z,98104.65
2017-11-08T12:04:50.883Z,98102.55
2017-11-08T12:07:18.391Z,98098.18
2017-11-08T12:09:45.905Z,98096.71
2017-11-08T12:12:13.441Z,98100.16
2017-11-08T12:14:40.936Z,98104.27
2017-11-08T12:17:08.454Z,98109.55
2017-11-08T12:19:37.775Z,98108.65
2017-11-08T12:22:05.283Z,98110.44
2017-11-08T12:24:32.907Z,98110.90
2017-11-08T12:27:06.494Z,98109.80
2017-11-08T12:29:36.499Z,98113.20
2017-11-08T12:32:04.028Z,98119.14
2017-11-08T12:34:31.531Z,98119.44
2017-11-08T12:36:59.075Z,98118.05
2017-11-08T12:39:26.582Z,98121.19
2017-11-08T12:41:54.125Z,98115.08
2017-11-08T12:44:26.470Z,98121.52
2017-11-08T12:46:53.984Z,98119.80
2017-11-08T12:49:21.475Z,98120.64
2017-11-08T12:51:48.967Z,98116.63
2017-11-08T12:54:16.480Z,98128.43
2017-11-08T12:56:43.988Z,98135.06
2017-11-08T12:59:11.482Z,98134.13
2017-11-08T13:01:39.419Z,98133.33
2017-11-08T13:04:06.970Z,98134.56
2017-11-08T13:06:37.435Z,98129.23
2017-11-08T13:09:04.942Z,98138.06
2017-11-08T13:11:36.306Z,98135.16
2017-11-08T13:14:03.816Z,98137.44
2017-11-08T13:16:31.394Z,98135.42
2017-11-08T13:18:58.904Z,98147.69
2017-11-08T13:21:26.401Z,98143.28
2017-11-08T13:23:53.911Z,98140.60
2017-11-08T13:26:21.408Z,98148.03
2017-11-08T13:28:48.912Z,98154.49
2017-11-08T13:31:16.413Z,98159.80
2017-11-08T13:33:43.909Z,98157.52
2017-11-08T13:36:11.435Z,98164.77
2017-11-08T13:38:38.974Z,98165.30
2017-11-08T13:41:06.472Z,98164.32
2017-11-08T13:43:33.978Z,98169.61
2017-11-08T13:46:01.513Z,98167.16
2017-11-08T13:48:29.069Z,98170.38
2017-11-08T13:50:56.558Z,98171.42
2017-11-08T13:53:24.054Z,98171.46
2017-11-08T13:55:51.558Z,98177.56
2017-11-08T13:58:19.071Z,98178.87
2017-11-08T14:00:46.580Z,98183.41
2017-11-08T14:03:14.112Z,98184.55
2017-11-08T14:05:41.628Z,98182.39
2017-11-08T14:08:09.175Z,98182.16
2017-11-08T14:10:36.688Z,98178.81
2017-11-08T14:13:04.235Z,98176.61
2017-11-08T14:15:31.755Z,98181.47
2017-11-08T14:17:59.260Z,98185.42
2017-11-08T14:20:26.768Z,98186.09
2017-11-08T14:22:54.299Z,98192.45
2017-11-08T14:25:21.798Z,98196.21
2017-11-08T14:27:49.296Z,98191.97
2017-11-08T14:30:16.843Z,98187.83
2017-11-08T14:32:44.354Z,98199.36
2017-11-08T14:35:11.880Z,98200.70
2017-11-08T14:37:39.391Z,98201.83
2017-11-08T14:40:06.908Z,98202.17
2017-11-08T14:42:40.450Z,98196.57
2017-11-08T14:45:07.946Z,98201.87
2017-11-08T14:47:35.446Z,98205.86
2017-11-08T14:50:02.971Z,98204.55
2017-11-08T14:52:30.504Z,98207.36
2017-11-08T14:54:58.212Z,98206.38
2017-11-08T14:57:25.783Z,98210.02
2017-11-08T14:59:53.287Z,98212.38
2017-11-08T15:02:20.795Z,98221.09
2017-11-08T15:04:48.289Z,98215.59
2017-11-08T15:07:15.808Z,98218.13
2017-11-08T15:09:43.317Z,98223.81
2017-11-08T15:12:10.848Z,98216.69
2017-11-08T15:14:42.223Z,98224.84
2017-11-08T15:17:09.737Z,98220.36
2017-11-08T15:19:42.826Z,98225.66
2017-11-08T15:22:10.346Z,98225.66
2017-11-08T15:24:37.855Z,98225.00
2017-11-08T15:27:05.352Z,98226.47
2017-11-08T15:29:32.877Z,98222.59
2017-11-08T15:32:00.399Z,98231.03
2017-11-08T15:34:30.409Z,98232.53
2017-11-08T15:36:57.903Z,98229.99
2017-11-08T15:39:25.407Z,98241.13
2017-11-08T15:41:55.709Z,98238.84
2017-11-08T15:44:23.221Z,98237.50
2017-11-08T15:46:54.703Z,98244.63
2017-11-08T15:49:22.243Z,98239.78
2017-11-08T15:51:49.767Z,98249.20
2017-11-08T15:54:17.258Z,98245.59
2017-11-08T15:56:44.758Z,98248.39
2017-11-08T15:59:12.255Z,98253.48
2017-11-08T16:01:41.685Z,98250.54
2017-11-08T16:04:12.152Z,98255.26
2017-11-08T16:06:39.638Z,98257.53
2017-11-08T16:09:10.088Z,98258.34
2017-11-08T16:11:37.596Z,98264.92
2017-11-08T16:14:05.126Z,98270.20
2017-11-08T16:16:32.672Z,98262.13
2017-11-08T16:19:03.152Z,98259.84
2017-11-08T16:21:31.548Z,98259.44
2017-11-08T16:23:59.049Z,98259.97
2017-11-08T16:26:26.571Z,98261.58
2017-11-08T16:28:54.117Z,98261.05
2017-11-08T16:31:21.620Z,98264.95
2017-11-08T16:33:49.192Z,98261.58
2017-11-08T16:36:16.676Z,98252.58
2017-11-08T16:38:44.199Z,98258.38
2017-11-08T16:41:11.705Z,98263.86
2017-11-08T16:43:39.225Z,98272.20
2017-11-08T16:46:06.768Z,98271.80
2017-11-08T16:48:34.263Z,98268.03
2017-11-08T16:51:01.768Z,98271.11
2017-11-08T16:53:29.274Z,98271.52
2017-11-08T16:55:56.778Z,98273.55
2017-11-08T16:58:24.283Z,98274.61
2017-11-08T17:00:51.806Z,98271.13
2017-11-08T17:03:19.339Z,98275.02
2017-11-08T17:05:46.876Z,98273.39
2017-11-08T17:08:14.373Z,98278.23
2017-11-08T17:10:41.905Z,98280.13
2017-11-08T17:13:09.423Z,98284.97
2017-11-08T17:15:36.914Z,98281.17
2017-11-08T17:18:04.492Z,98280.63
2017-11-08T17:20:31.982Z,98285.08
2017-11-08T17:22:59.539Z,98295.28
2017-11-08T17:25:27.057Z,98289.75
2017-11-08T17:27:54.603Z,98296.88
2017-11-08T17:30:22.097Z,98297.29
2017-11-08T17:32:49.743Z,98299.98
2017-11-08T17:35:17.281Z,98303.48
2017-11-08T17:37:44.804Z,98308.87
2017-11-08T17:40:12.420Z,98308.47
2017-11-08T17:42:39.920Z,98308.20
2017-11-08T17:45:07.407Z,98313.72
2017-11-08T17:47:34.912Z,98313.95
2017-11-08T17:50:02.402Z,98315.71
2017-11-08T17:52:30.311Z,98310.49
2017-11-08T17:54:57.807Z,98308.19
2017-11-08T17:57:25.329Z,98307.23
2017-11-08T17:59:52.869Z,98314.91
2017-11-08T18:02:20.366Z,98311.42
2017-11-08T18:04:47.877Z,98317.58
2017-11-08T18:07:15.392Z,98317.98
2017-11-08T18:09:42.930Z,98315.84
2017-11-08T18:12:10.487Z,98315.84
2017-11-08T18:14:37.991Z,98319.72
2017-11-08T18:17:05.529Z,98324.30
2017-11-08T18:19:33.052Z,98319.03
2017-11-08T18:22:00.715Z,98322.30
2017-11-08T18:24:28.214Z,98323.48
2017-11-08T18:26:55.739Z,98322.41
2017-11-08T18:29:23.294Z,98323.36
2017-11-08T18:31:50.820Z,98325.53
2017-11-08T18:34:18.350Z,98334.66
2017-11-08T18:36:45.873Z,98333.20
2017-11-08T18:39:13.417Z,98335.88
2017-11-08T18:41:40.939Z,98334.80
2017-11-08T18:44:08.449Z,98333.44
2017-11-08T18:46:35.964Z,98335.86
2017-11-08T18:49:03.491Z,98336.95
2017-11-08T18:51:31.004Z,98341.22
2017-11-08T18:53:58.520Z,98341.51
2017-11-08T18:56:26.034Z,98347.67
2017-11-08T18:58:53.564Z,98343.38
2017-11-08T19:01:21.189Z,98355.19
2017-11-08T19:03:48.690Z,98349.12
2017-11-08T19:06:16.344Z,98350.17
2017-11-08T19:08:44.124Z,98347.63
2017-11-08T19:11:11.723Z,98353.68
2017-11-08T19:13:39.252Z,98356.61
2017-11-08T19:16:06.765Z,98357.98
2017-11-08T19:18:34.304Z,98358.81
2017-11-08T19:21:01.820Z,98360.04
2017-11-08T19:23:29.342Z,98361.49
2017-11-08T19:25:56.852Z,98367.26
2017-11-08T19:28:24.395Z,98365.66
2017-11-08T19:30:51.908Z,98370.48
2017-11-08T19:33:19.428Z,98371.55
2017-11-08T19:35:46.930Z,98369.30
2017-11-08T19:38:14.472Z,98374.67
2017-11-08T19:40:41.970Z,98379.23
2017-11-08T19:43:09.469Z,98379.28
2017-11-08T19:45:36.975Z,98382.10
2017-11-08T19:48:04.508Z,98385.19
2017-11-08T19:50:32.621Z,98381.56
2017-11-08T19:53:00.134Z,98380.60
2017-11-08T19:55:27.622Z,98381.45
2017-11-08T19:57:55.174Z,98385.56
2017-11-08T20:00:22.764Z,98381.91
2017-11-08T20:02:50.277Z,98384.73
2017-11-08T20:05:17.830Z,98386.45
2017-11-08T20:07:45.331Z,98382.95
2017-11-08T20:10:12.879Z,98389.89
2017-11-08T20:12:40.472Z,98388.34
2017-11-08T20:15:08.002Z,98388.23
2017-11-08T20:17:35.510Z,98392.02
2017-11-08T20:20:03.048Z,98394.04
2017-11-08T20:22:30.580Z,98397.16
2017-11-08T20:24:58.091Z,98395.69
2017-11-08T20:27:25.592Z,98395.97
2017-11-08T20:29:53.157Z,98390.58
2017-11-08T20:32:20.694Z,98389.89
2017-11-08T20:34:48.234Z,98394.58
2017-11-08T20:37:15.833Z,98390.71
2017-11-08T20:39:43.358Z,98395.27
2017-11-08T20:42:10.897Z,98392.05
2017-11-08T20:44:38.387Z,98399.72
2017-11-08T20:47:05.920Z,98395.66
2017-11-08T20:49:33.472Z,98398.34
2017-11-08T20:52:00.979Z,98408.19
2017-11-08T20:54:28.477Z,98404.84
2017-11-08T20:56:55.979Z,98403.34
2017-11-08T20:59:23.505Z,98412.30
2017-11-08T21:01:51.061Z,98404.08
2017-11-08T21:04:18.608Z,98412.96
2017-11-08T21:06:46.120Z,98411.78
2017-11-08T21:09:13.664Z,98415.41
2017-11-08T21:11:41.191Z,98415.80
2017-11-08T21:14:08.678Z,98410.42
2017-11-08T21:16:36.191Z,98414.20
2017-11-08T21:19:03.695Z,98416.75
2017-11-08T21:21:31.265Z,98423.59
2017-11-08T21:23:58.762Z,98411.73
2017-11-08T21:26:26.287Z,98415.22
2017-11-08T21:28:53.810Z,98415.34
2017-11-08T21:31:21.326Z,98413.31
2017-11-08T21:33:48.847Z,98421.67
2017-11-08T21:36:16.367Z,98418.16
2017-11-08T21:38:43.893Z,98415.48
2017-11-08T21:41:11.424Z,98417.52
2017-11-08T21:43:39.001Z,98413.99
2017-11-08T21:46:06.507Z,98421.53
2017-11-08T21:48:34.022Z,98420.08
2017-11-08T21:51:01.582Z,98429.88
2017-11-08T21:53:29.080Z,98420.23
2017-11-08T21:55:56.568Z,98414.99
2017-11-08T21:58:24.081Z,98425.77
2017-11-08T22:00:51.613Z,98427.62
2017-11-08T22:03:19.112Z,98425.86
2017-11-08T22:05:46.615Z,98425.06
2017-11-08T22:08:14.127Z,98425.98
2017-11-08T22:10:41.644Z,98426.37
2017-11-08T22:13:09.141Z,98426.73
2017-11-08T22:15:36.665Z,98427.14
2017-11-08T22:18:04.164Z,98432.80
2017-11-08T22:20:31.682Z,98439.02
2017-11-08T22:22:59.231Z,98438.87
2017-11-08T22:25:26.770Z,98446.02
2017-11-08T22:27:54.266Z,98439.88
2017-11-08T22:30:21.767Z,98440.53
2017-11-08T22:32:49.275Z,98434.61
2017-11-08T22:35:16.776Z,98431.08
2017-11-08T22:37:44.312Z,98437.23
2017-11-08T22:40:11.852Z,98440.84
2017-11-08T22:42:40.475Z,98445.45
2017-11-08T22:45:07.996Z,98440.52
2017-11-08T22:47:35.640Z,98450.22
2017-11-08T22:50:03.159Z,98443.05
2017-11-08T22:52:30.691Z,98440.23
2017-11-08T22:54:58.184Z,98444.38
2017-11-08T22:57:25.709Z,98455.81
2017-11-08T22:59:53.245Z,98450.46
2017-11-08T23:02:20.741Z,98456.78
2017-11-08T23:04:48.253Z,98454.77
2017-11-08T23:07:15.796Z,98456.91
2017-11-08T23:09:43.398Z,98454.78
2017-11-08T23:12:11.858Z,98455.05
2017-11-08T23:14:39.379Z,98458.62
2017-11-08T23:17:06.893Z,98460.52
2017-11-08T23:19:34.694Z,98462.80
2017-11-08T23:22:02.198Z,98460.66
2017-11-08T23:24:29.710Z,98459.73
2017-11-08T23:26:57.253Z,98449.92
2017-11-08T23:29:24.785Z,98446.50
2017-11-08T23:31:52.298Z,98447.59
2017-11-08T23:34:19.824Z,98446.60
2017-11-08T23:36:47.358Z,98445.40
2017-11-08T23:39:14.879Z,98451.19
2017-11-08T23:41:42.420Z,98450.36
2017-11-08T23:44:09.943Z,98443.92
2017-11-08T23:46:37.457Z,98449.83
2017-11-08T23:49:04.964Z,98444.02
2017-11-08T23:51:32.499Z,98451.57
2017-11-08T23:54:00.952Z,98451.98
2017-11-08T23:56:32.470Z,98446.36
2017-11-08T23:58:59.991Z,98450.78
